sensor_id;sensor_type;location;lat;lon;timestamp;P1;P2;P0
84646;PMS5003;74876;52.404;16.896;2024-02-16T00:00:09;38.69682922790208;38.69682922790208;19.34841461395104
84646;PMS5003;74876;52.404;16.896;2024-02-16T00:20:09;62.076163553092925;53.20814018836536;24.185518267438802
84646;PMS5003;74876;52.404;16.896;2024-02-16T00:35:09;53.61543928911911;50.366018726142194;30.05714020753647
84646;PMS5003;74876;52.404;16.896;2024-02-16T00:50:09;46.3631576985166;46.3631576985166;25.215050678140607
84646;PMS5003;74876;52.404;16.896;2024-02-16T01:05:09;50.514885306005844;50.514885306005844;26.07219886761592
84646;PMS5003;74876;52.404;16.896;2024-02-16T01:20:09;45.61681248096481;45.61681248096481;21.99382030332232
84646;PMS5003;74876;52.404;16.896;2024-02-16T01:35:09;39.745884145547045;37.31246266724825;23.52307429022172
84646;PMS5003;74876;52.404;16.896;2024-02-16T01:50:09;45.45308460379268;43.018097928589505;24.349866752031794
84646;PMS5003;74876;52.404;16.896;2024-02-16T02:05:10;62.81459613734394;53.84108240343766;26.10476722590917
84646;PMS5003;74876;52.404;16.896;2024-02-16T02:20:10;39.2779011822294;39.2779011822294;18.82066098315159
84646;PMS5003;74876;52.404;16.896;2024-02-16T02:35:10;35.29994440838692;35.29994440838692;17.239507734328498
84646;PMS5003;74876;52.404;16.896;2024-02-16T02:50:10;37.00773938639381;37.00773938639381;17.270278380317112
84646;PMS5003;74876;52.404;16.896;2024-02-16T03:05:09;46.135370299300305;44.48767850289672;22.24383925144836
84646;PMS5003;74876;52.404;16.896;2024-02-16T03:20:09;52.705565435383186;46.11736975596028;19.764587038268694
84646;PMS5003;74876;52.404;16.896;2024-02-16T03:35:10;50.12642492812381;40.265488876689616;20.54361677382123
84646;PMS5003;74876;52.404;16.896;2024-02-16T03:50:09;50.8772900366833;50.8772900366833;22.15623920952337
84646;PMS5003;74876;52.404;16.896;2024-02-16T04:05:09;45.01507342983451;40.92279402712228;21.279852894103588
84646;PMS5003;74876;52.404;16.896;2024-02-16T04:25:09;47.85728907320971;45.42386759491091;21.900793304689188
84646;PMS5003;74876;52.404;16.896;2024-02-16T04:40:09;45.85970487238307;41.03236751739538;18.504793194119486
84646;PMS5003;74876;52.404;16.896;2024-02-16T04:55:09;35.69567454949476;35.69567454949476;18.24445588085288
84646;PMS5003;74876;52.404;16.896;2024-02-16T05:10:09;51.19730559492716;44.10844789716801;18.90362052735772
84646;PMS5003;74876;52.404;16.896;2024-02-16T05:25:09;39.72187211582434;38.16415164069397;18.692645701564395
84646;PMS5003;74876;52.404;16.896;2024-02-16T05:40:09;38.6985144251219;38.6985144251219;17.452271211329485
84646;PMS5003;74876;52.404;16.896;2024-02-16T05:55:09;43.02830406892814;39.186491205630986;16.903976598507484
84646;PMS5003;74876;52.404;16.896;2024-02-16T06:10:10;45.374274220613;39.221830258495984;21.53355386740956
84646;PMS5003;74876;52.404;16.896;2024-02-16T06:25:10;47.28408304725764;38.75744512070298;14.727829145867132
84646;PMS5003;74876;52.404;16.896;2024-02-16T06:40:10;38.46428714246688;34.61785842822019;16.15500059983609
84646;PMS5003;74876;52.404;16.896;2024-02-16T07:00:09;46.348310111266684;44.03089460570335;20.08426771488223
84646;PMS5003;74876;52.404;16.896;2024-02-16T07:15:09;32.95195827008346;32.95195827008346;14.122267830035769
84646;PMS5003;74876;52.404;16.896;2024-02-16T07:30:09;46.109406405125576;42.92944734270312;19.874744140140333
84646;PMS5003;74876;52.404;16.896;2024-02-16T07:45:09;45.67386943994392;42.41145019423364;19.57451547426168
84646;PMS5003;74876;52.404;16.896;2024-02-16T08:00:09;42.592708469257055;42.592708469257055;20.878778661400517
84646;PMS5003;74876;52.404;16.896;2024-02-16T08:15:09;41.07564887276111;41.07564887276111;18.826339066682173
84646;PMS5003;74876;52.404;16.896;2024-02-16T08:35:10;39.148528906372704;36.47931102639275;17.794785866533047
84646;PMS5003;74876;52.404;16.896;2024-02-16T08:55:09;30.976867206552864;30.976867206552864;13.14170123914364
84646;PMS5003;74876;52.404;16.896;2024-02-16T09:10:09;33.299747007967426;33.299747007967426;16.174162832441322
84646;PMS5003;74876;52.404;16.896;2024-02-16T09:25:09;29.192420968701015;29.192420968701015;16.542371882263907
84646;PMS5003;74876;52.404;16.896;2024-02-16T09:40:09;41.20263463525352;41.20263463525352;12.753196434721326
84646;PMS5003;74876;52.404;16.896;2024-02-16T09:55:09;34.77861126324945;29.810238225642387;18.879817542906846
84646;PMS5003;74876;52.404;16.896;2024-02-16T10:10:09;29.11797748440017;29.11797748440017;18.07322740411045
84646;PMS5003;74876;52.404;16.896;2024-02-16T10:25:09;26.444211887829912;26.444211887829912;16.273361161741484
84646;PMS5003;74876;52.404;16.896;2024-02-16T10:40:09;41.48233990387464;29.037637932712247;13.481760468759257
84646;PMS5003;74876;52.404;16.896;2024-02-16T10:55:09;31.35419591767829;27.17363646198785;12.541678367071317
84646;PMS5003;74876;52.404;16.896;2024-02-16T11:10:09;32.291349182090116;32.291349182090116;14.58318995320199
84646;PMS5003;74876;52.404;16.896;2024-02-16T11:25:09;23.068394680455036;23.068394680455036;12.582760734793656
84646;PMS5003;74876;52.404;16.896;2024-02-16T11:40:10;34.63090767866126;34.63090767866126;13.64247878250292
84646;PMS5003;74876;52.404;16.896;2024-02-16T11:55:09;24.256390528122598;24.256390528122598;15.819385127036476
84646;PMS5003;74876;52.404;16.896;2024-02-16T12:10:09;22.11195384269042;22.11195384269042;11.582452012837837
84646;PMS5003;74876;52.404;16.896;2024-02-16T12:25:09;25.276114639957115;25.276114639957115;10.531714433315464
84646;PMS5003;74876;52.404;16.896;2024-02-16T12:40:09;25.35194040602855;25.35194040602855;11.619639352763086
84646;PMS5003;74876;52.404;16.896;2024-02-16T12:55:10;20.069458850993716;20.069458850993716;8.450298463576301
84646;PMS5003;74876;52.404;16.896;2024-02-16T13:10:09;29.594304749826183;29.594304749826183;16.91103128561496
84646;PMS5003;74876;52.404;16.896;2024-02-16T13:25:10;31.25597728775036;26.944808006681345;14.0113001634743
84646;PMS5003;74876;52.404;16.896;2024-02-16T13:40:10;36.37885942149495;29.959060700054664;12.83959744288057
84646;PMS5003;74876;52.404;16.896;2024-02-16T14:00:09;31.71208895011338;31.71208895011338;17.970183738397584
84646;PMS5003;74876;52.404;16.896;2024-02-16T14:15:09;23.138525067826574;23.138525067826574;11.569262533913287
84646;PMS5003;74876;52.404;16.896;2024-02-16T14:30:09;27.28964208043478;27.28964208043478;13.64482104021739
84646;PMS5003;74876;52.404;16.896;2024-02-16T14:45:09;28.181352752253016;28.181352752253016;15.656307084585007
84646;PMS5003;74876;52.404;16.896;2024-02-16T15:00:09;24.924950020853473;24.924950020853473;14.539554178831192
84646;PMS5003;74876;52.404;16.896;2024-02-16T15:15:09;34.16570757730039;34.16570757730039;18.635840496709303
84646;PMS5003;74876;52.404;16.896;2024-02-16T15:30:09;25.827158663053467;25.827158663053467;14.463208851309941
84646;PMS5003;74876;52.404;16.896;2024-02-16T15:45:10;31.014569042816742;31.014569042816742;18.608741425690045
84646;PMS5003;74876;52.404;16.896;2024-02-16T16:00:10;29.959504049142023;29.959504049142023;18.595554237398495
84646;PMS5003;74876;52.404;16.896;2024-02-16T16:15:10;27.89861343431172;27.89861343431172;15.499229685728734
84646;PMS5003;74876;52.404;16.896;2024-02-16T16:30:10;37.21221582239095;37.21221582239095;19.63978057292856
84646;PMS5003;74876;52.404;16.896;2024-02-16T16:45:10;27.917059477476784;27.917059477476784;12.407581989989682
84646;PMS5003;74876;52.404;16.896;2024-02-16T17:00:10;32.08004251254905;30.01036235044911;17.592281377849478
84646;PMS5003;74876;52.404;16.896;2024-02-16T17:15:09;28.95375198052462;28.95375198052462;18.6131262731944
84646;PMS5003;74876;52.404;16.896;2024-02-16T17:30:10;29.92106068572983;26.825778545826743;13.412889272913372
84646;PMS5003;74876;52.404;16.896;2024-02-16T17:45:09;30.908316690888682;30.908316690888682;17.514712791503587
84646;PMS5003;74876;52.404;16.896;2024-02-16T18:00:09;31.903099375061863;31.903099375061863;24.699173709725315
84646;PMS5003;74876;52.404;16.896;2024-02-16T18:20:09;52.38336914230479;39.03074563544278;21.569622588007853
84646;PMS5003;74876;52.404;16.896;2024-02-16T18:35:09;34.89819226259808;34.89819226259808;15.396261292322682
84646;PMS5003;74876;52.404;16.896;2024-02-16T18:50:09;41.03032747697935;33.85002016850796;21.540921925414157
84646;PMS5003;74876;52.404;16.896;2024-02-16T19:05:09;37.812616999700865;37.812616999700865;18.395327189043666
84646;PMS5003;74876;52.404;16.896;2024-02-16T19:20:09;41.10598247556405;41.10598247556405;21.05428370699622
84646;PMS5003;74876;52.404;16.896;2024-02-16T19:35:09;30.92544416551896;30.92544416551896;14.963924596218853
84646;PMS5003;74876;52.404;16.896;2024-02-16T19:50:10;42.81273157624358;42.81273157624358;22.899833168688424
84646;PMS5003;74876;52.404;16.896;2024-02-16T20:05:09;40.884502829780814;40.884502829780814;20.940842912814563
84646;PMS5003;74876;52.404;16.896;2024-02-16T20:20:10;40.891746343992075;40.891746343992075;19.94719333853272
84646;PMS5003;74876;52.404;16.896;2024-02-16T20:35:10;32.86411789104915;32.86411789104915;20.913529567031276
84646;PMS5003;74876;52.404;16.896;2024-02-16T20:50:10;41.75698805054469;37.78013204573091;15.90742401925512
84646;PMS5003;74876;52.404;16.896;2024-02-16T21:05:10;43.642079375718154;37.690886733574764;22.812905128216308
84646;PMS5003;74876;52.404;16.896;2024-02-16T21:20:10;51.4309786162347;45.49663492974608;23.737374745954476
84646;PMS5003;74876;52.404;16.896;2024-02-16T21:35:09;44.365236967706025;44.365236967706025;22.675565561271966
84646;PMS5003;74876;52.404;16.896;2024-02-16T21:50:10;38.479085620353764;38.479085620353764;18.746221199659526
84646;PMS5003;74876;52.404;16.896;2024-02-16T22:05:09;40.515964420690004;40.515964420690004;21.74027359158976
84646;PMS5003;74876;52.404;16.896;2024-02-16T22:20:09;43.43420157066193;43.43420157066193;18.755677950967655
84646;PMS5003;74876;52.404;16.896;2024-02-16T22:35:09;46.260260019160405;46.260260019160405;24.606521286787448
84646;PMS5003;74876;52.404;16.896;2024-02-16T22:50:09;40.16614519311568;40.16614519311568;17.633917401855665
84646;PMS5003;74876;52.404;16.896;2024-02-16T23:05:09;39.97826741880654;39.97826741880654;16.576354783407588
84646;PMS5003;74876;52.404;16.896;2024-02-16T23:20:09;29.025120449328988;29.025120449328988;17.415072269597392
84646;PMS5003;74876;52.404;16.896;2024-02-16T23:35:09;37.46658010137612;37.46658010137612;18.252949280157598
84646;PMS5003;74876;52.404;16.896;2024-02-16T23:50:09;40.15663240181834;34.41997063013;19.12220590562778
